WMKM/MKZ METAR and TAF weather

Enter ICAO airport designator
Station Type Date Time Source
WMKM METAR 2019/06/26 17:00 UTC NOAA

WMKM 261700Z 00000KT 9999 FEW030 SCT140 BKN280 25/24 Q1011


Station Type Date Time Source
WMKM Decoded METAR 2019/06/26 17:00 UTC NOAA

Malacca, Malaysia (WMKM) 02-16N 102-15E 9M
Jun 26, 2019 - 01:00 PM EDT / 2019.06.26 1700 UTC
Wind: Calm:0
Visibility: greater than 7 mile(s):0
Sky conditions: mostly cloudy
Temperature: 77 F (25 C)
Dew Point: 75 F (24 C)
Relative Humidity: 94%
Pressure (altimeter): 29.85 in. Hg (1011 hPa)
ob: WMKM 261700Z 00000KT 9999 FEW030 SCT140 BKN280 25/24 Q1011
cycle: 17

Station Type Date Time Source
WMKM TAF 2019/06/26 18:00 UTC NOAA

TAF WMKM 261700Z 2618/2718 VRB02KT 9999 FEW030 PROB30
TEMPO 2622/2702 30008G20KT 3000 TSRA FEW016CB SCT018

Example: see airport list